Terminal Aerodrome Forecast
Issued by NWS Boston, MA

Home | Current Version | Previous Version | Text Only | Print | Product List | Glossary On
Versions: 1 2 3 4 5 6 7 8 9 10 11 12 13 14 15 16 17 18 19 20 21 22
000
FTUS41 KBOX 251132
TAFBDL
TAF
KBDL 251132Z 2512/2618 17006KT P6SM BKN005 OVC040
     FM251400 17007KT P6SM BKN035
     FM251900 17008KT P6SM BKN015
     FM252100 16008KT P6SM VCSH BKN020
     FM252300 17009KT 4SM -RA OVC015
     FM260300 32013G28KT P6SM VCSH OVC035
     FM260500 31012G26KT P6SM BKN250=

USA.gov is the U.S. government's official web portal to all federal, state and local government web resources and services.